createdAt,value
2019-03-12T00:00:28.810Z,997.16
2019-03-12T00:01:28.799Z,997.16
2019-03-12T00:02:28.782Z,997.16
2019-03-12T00:03:28.770Z,997.17
2019-03-12T00:04:28.820Z,997.12
2019-03-12T00:05:28.781Z,997.09
2019-03-12T00:06:28.748Z,997.10
2019-03-12T00:07:28.749Z,997.13
2019-03-12T00:08:28.721Z,997.13
2019-03-12T00:09:28.718Z,997.14
2019-03-12T00:10:28.766Z,997.13
2019-03-12T00:11:28.697Z,997.13
2019-03-12T00:12:28.691Z,997.14
2019-03-12T00:13:28.670Z,997.14
2019-03-12T00:14:28.695Z,997.12
2019-03-12T00:15:28.648Z,997.21
2019-03-12T00:16:28.662Z,997.18
2019-03-12T00:17:28.625Z,997.18
2019-03-12T00:18:28.837Z,997.17
2019-03-12T00:19:28.607Z,997.18
2019-03-12T00:20:28.599Z,997.14
2019-03-12T00:21:28.643Z,997.23
2019-03-12T00:22:28.700Z,997.20
2019-03-12T00:23:28.601Z,997.21
2019-03-12T00:24:28.596Z,997.24
2019-03-12T00:25:28.543Z,997.19
2019-03-12T00:26:28.536Z,997.22
2019-03-12T00:27:28.543Z,997.20
2019-03-12T00:28:28.582Z,997.19
2019-03-12T00:29:28.499Z,997.23
2019-03-12T00:30:28.490Z,997.21
2019-03-12T00:31:28.507Z,997.21
2019-03-12T00:32:28.476Z,997.27
2019-03-12T00:33:28.469Z,997.28
2019-03-12T00:34:28.482Z,997.32
2019-03-12T00:35:28.441Z,997.28
2019-03-12T00:36:28.478Z,997.38
2019-03-12T00:37:28.467Z,997.44
2019-03-12T00:38:28.411Z,997.45
2019-03-12T00:39:28.405Z,997.49
2019-03-12T00:40:28.416Z,997.46
2019-03-12T00:41:28.373Z,997.46
2019-03-12T00:42:28.366Z,997.44
2019-03-12T00:43:28.374Z,997.40
2019-03-12T00:44:28.350Z,997.32
2019-03-12T00:45:28.389Z,997.31
2019-03-12T00:46:28.354Z,997.32
2019-03-12T00:47:28.323Z,997.33
2019-03-12T00:48:28.393Z,997.33
2019-03-12T00:49:28.363Z,997.36
2019-03-12T00:50:28.280Z,997.36
2019-03-12T00:51:28.284Z,997.35
2019-03-12T00:52:28.280Z,997.34
2019-03-12T00:53:28.358Z,997.28
2019-03-12T00:54:28.315Z,997.22
2019-03-12T00:55:28.280Z,997.26
2019-03-12T00:56:28.306Z,997.24
2019-03-12T00:57:28.254Z,997.22
2019-03-12T00:58:28.286Z,997.24
2019-03-12T00:59:28.201Z,997.23
2019-03-12T01:00:28.266Z,997.21
2019-03-12T01:01:28.230Z,997.23
2019-03-12T01:02:28.197Z,997.20
2019-03-12T01:03:28.200Z,997.15
2019-03-12T01:04:28.156Z,997.18
2019-03-12T01:05:28.139Z,997.19
2019-03-12T01:06:28.151Z,997.16
2019-03-12T01:07:28.118Z,997.19
2019-03-12T01:08:28.126Z,997.14
2019-03-12T01:09:28.095Z,997.15
2019-03-12T01:10:28.072Z,997.15
2019-03-12T01:11:28.143Z,997.12
2019-03-12T01:12:28.069Z,997.13
2019-03-12T01:13:28.041Z,997.12
2019-03-12T01:14:28.144Z,997.09
2019-03-12T01:15:28.027Z,997.02
2019-03-12T01:16:28.014Z,997.06
2019-03-12T01:17:28.000Z,997.05
2019-03-12T01:18:28.010Z,997.05
2019-03-12T01:19:28.000Z,997.01
2019-03-12T01:20:27.995Z,997.02
2019-03-12T01:21:27.955Z,997.02
2019-03-12T01:22:27.946Z,997.01
2019-03-12T01:23:27.969Z,997.05
2019-03-12T01:24:27.934Z,997.07
2019-03-12T01:25:27.917Z,997.09
2019-03-12T01:26:27.939Z,997.13
2019-03-12T01:27:27.895Z,997.08
2019-03-12T01:28:27.897Z,997.10
2019-03-12T01:29:27.880Z,997.06
2019-03-12T01:30:27.872Z,997.04
2019-03-12T01:31:27.905Z,997.03
2019-03-12T01:32:27.891Z,997.05
2019-03-12T01:33:27.838Z,996.99
2019-03-12T01:34:27.851Z,996.98
2019-03-12T01:35:27.814Z,997.00
2019-03-12T01:36:27.812Z,996.95
2019-03-12T01:37:27.790Z,996.96
2019-03-12T01:38:27.789Z,996.94
2019-03-12T01:39:27.996Z,996.92
2019-03-12T01:40:27.905Z,996.89
2019-03-12T01:41:27.843Z,996.92
2019-03-12T01:42:27.754Z,996.90
2019-03-12T01:43:27.755Z,996.89
2019-03-12T01:44:27.796Z,996.88
2019-03-12T01:45:27.711Z,996.87
2019-03-12T01:46:27.723Z,996.87
2019-03-12T01:47:27.787Z,996.79
2019-03-12T01:48:27.680Z,996.77
2019-03-12T01:49:27.698Z,996.76
2019-03-12T01:50:27.716Z,996.74
2019-03-12T01:51:30.067Z,996.70
2019-03-12T01:52:27.639Z,996.68
2019-03-12T01:53:27.627Z,996.70
2019-03-12T01:54:27.647Z,996.63
2019-03-12T01:55:27.689Z,996.65
2019-03-12T01:56:27.640Z,996.64
2019-03-12T01:57:27.614Z,996.59
2019-03-12T01:58:27.621Z,996.56
2019-03-12T01:59:27.668Z,996.58
2019-03-12T02:00:27.622Z,996.61
2019-03-12T02:01:27.555Z,996.61
2019-03-12T02:02:27.605Z,996.56
2019-03-12T02:03:27.655Z,996.54
2019-03-12T02:04:27.655Z,996.49
2019-03-12T02:05:27.507Z,996.52
2019-03-12T02:06:27.563Z,996.51
2019-03-12T02:07:27.515Z,996.50
2019-03-12T02:08:27.519Z,996.51
2019-03-12T02:09:27.533Z,996.52
2019-03-12T02:10:27.534Z,996.50
2019-03-12T02:11:27.479Z,996.49
2019-03-12T02:12:27.421Z,996.45
2019-03-12T02:13:27.453Z,996.46
2019-03-12T02:14:27.420Z,996.48
2019-03-12T02:15:27.438Z,996.44
2019-03-12T02:16:27.482Z,996.45
2019-03-12T02:17:27.421Z,996.41
2019-03-12T02:18:27.411Z,996.38
2019-03-12T02:19:27.351Z,996.41
2019-03-12T02:20:27.358Z,996.42
2019-03-12T02:21:27.782Z,996.38
2019-03-12T02:22:27.338Z,996.34
2019-03-12T02:23:28.950Z,996.33
2019-03-12T02:24:27.319Z,996.33
2019-03-12T02:25:27.297Z,996.30
2019-03-12T02:26:27.337Z,996.28
2019-03-12T02:27:27.304Z,996.24
2019-03-12T02:28:27.276Z,996.23
2019-03-12T02:29:27.346Z,996.23
2019-03-12T02:30:27.289Z,996.21
2019-03-12T02:31:27.237Z,996.17
2019-03-12T02:32:27.240Z,996.18
2019-03-12T02:33:27.306Z,996.18
2019-03-12T02:34:27.201Z,996.17
2019-03-12T02:35:27.236Z,996.18
2019-03-12T02:36:27.194Z,996.17
2019-03-12T02:37:27.202Z,996.10
2019-03-12T02:38:27.175Z,996.10
2019-03-12T02:39:27.222Z,996.09
2019-03-12T02:40:27.241Z,996.08
2019-03-12T02:41:27.122Z,996.04
2019-03-12T02:42:27.170Z,996.02
2019-03-12T02:43:27.103Z,996.05
2019-03-12T02:44:27.101Z,996.03
2019-03-12T02:45:27.165Z,996.05
2019-03-12T02:46:27.114Z,996.03
2019-03-12T02:47:27.067Z,995.98
2019-03-12T02:48:27.131Z,995.98
2019-03-12T02:49:27.098Z,995.95
2019-03-12T02:50:27.027Z,995.89
2019-03-12T02:51:27.045Z,995.89
2019-03-12T02:52:27.048Z,995.85
2019-03-12T02:53:27.057Z,995.85
2019-03-12T02:54:27.043Z,995.84
2019-03-12T02:55:27.058Z,995.81
2019-03-12T02:56:26.975Z,995.84
2019-03-12T02:57:26.990Z,995.78
2019-03-12T02:58:26.974Z,995.81
2019-03-12T02:59:27.005Z,995.80
2019-03-12T03:00:27.067Z,995.76
2019-03-12T03:01:26.970Z,995.75
2019-03-12T03:02:26.968Z,995.79
2019-03-12T03:03:26.981Z,995.81
2019-03-12T03:04:26.941Z,995.79
2019-03-12T03:05:26.909Z,995.82
2019-03-12T03:06:26.899Z,995.80
2019-03-12T03:07:26.943Z,995.88
2019-03-12T03:08:26.873Z,995.79
2019-03-12T03:09:26.842Z,995.87
2019-03-12T03:10:26.918Z,995.84
2019-03-12T03:11:26.841Z,995.81
2019-03-12T03:12:26.816Z,995.81
2019-03-12T03:13:26.783Z,995.83
2019-03-12T03:14:26.862Z,995.81
2019-03-12T03:15:26.820Z,995.81
2019-03-12T03:16:26.885Z,995.76
2019-03-12T03:17:26.815Z,995.78
2019-03-12T03:18:26.744Z,995.82
2019-03-12T03:19:26.802Z,995.79
2019-03-12T03:20:26.737Z,995.80
2019-03-12T03:21:26.770Z,995.80
2019-03-12T03:22:26.741Z,995.75
2019-03-12T03:23:26.717Z,995.78
2019-03-12T03:24:26.785Z,995.76
2019-03-12T03:25:26.669Z,995.74
2019-03-12T03:26:26.691Z,995.72
2019-03-12T03:27:29.333Z,995.72
2019-03-12T03:28:26.708Z,995.75
2019-03-12T03:29:26.652Z,995.68
2019-03-12T03:30:26.616Z,995.78
2019-03-12T03:31:26.650Z,995.70
2019-03-12T03:32:26.828Z,995.64
2019-03-12T03:33:26.617Z,995.68
2019-03-12T03:34:28.080Z,995.64
2019-03-12T03:35:26.646Z,995.62
2019-03-12T03:36:26.544Z,995.71
2019-03-12T03:37:26.544Z,995.70
2019-03-12T03:38:26.595Z,995.70
2019-03-12T03:39:26.517Z,995.70
2019-03-12T03:40:26.629Z,995.75
2019-03-12T03:41:26.552Z,995.70
2019-03-12T03:42:26.506Z,995.69
2019-03-12T03:43:26.484Z,995.68
2019-03-12T03:44:26.465Z,995.66
2019-03-12T03:45:26.529Z,995.70
2019-03-12T03:46:26.595Z,995.69
2019-03-12T03:47:26.500Z,995.70
2019-03-12T03:48:26.486Z,995.74
2019-03-12T03:49:26.426Z,995.67
2019-03-12T03:50:26.474Z,995.62
2019-03-12T03:51:26.412Z,995.61
2019-03-12T03:52:26.517Z,995.61
2019-03-12T03:53:26.370Z,995.62
2019-03-12T03:54:26.404Z,995.63
2019-03-12T03:55:26.409Z,995.62
2019-03-12T03:56:26.371Z,995.65
2019-03-12T03:57:26.335Z,995.55
2019-03-12T03:58:26.462Z,995.58
2019-03-12T03:59:26.348Z,995.54
2019-03-12T04:00:26.304Z,995.52
2019-03-12T04:01:26.407Z,995.52
2019-03-12T04:02:26.300Z,995.49
2019-03-12T04:03:26.268Z,995.44
2019-03-12T04:04:26.288Z,995.42
2019-03-12T04:05:26.282Z,995.43
2019-03-12T04:06:26.284Z,995.35
2019-03-12T04:07:26.307Z,995.39
2019-03-12T04:08:26.251Z,995.43
2019-03-12T04:09:26.215Z,995.37
2019-03-12T04:10:26.302Z,995.36
2019-03-12T04:11:26.215Z,995.36
2019-03-12T04:12:26.273Z,995.35
2019-03-12T04:13:26.241Z,995.32
2019-03-12T04:14:26.169Z,995.28
2019-03-12T04:15:26.184Z,995.20
2019-03-12T04:16:26.173Z,995.17
2019-03-12T04:17:26.155Z,995.11
2019-03-12T04:18:26.152Z,995.13
2019-03-12T04:19:26.213Z,995.14
2019-03-12T04:20:26.100Z,995.05
2019-03-12T04:21:26.095Z,995.07
2019-03-12T04:22:26.103Z,995.03
2019-03-12T04:23:26.096Z,995.06
2019-03-12T04:24:26.055Z,995.04
2019-03-12T04:25:26.060Z,994.99
2019-03-12T04:26:26.090Z,995.00
2019-03-12T04:27:26.185Z,995.02
2019-03-12T04:28:26.129Z,995.05
2019-03-12T04:29:26.025Z,995.05
2019-03-12T04:30:25.981Z,995.00
2019-03-12T04:31:25.979Z,994.99
2019-03-12T04:32:25.965Z,994.98
2019-03-12T04:33:26.041Z,994.96
2019-03-12T04:34:25.976Z,994.95
2019-03-12T04:35:25.931Z,994.95
2019-03-12T04:36:25.929Z,994.97
2019-03-12T04:37:25.917Z,994.95
2019-03-12T04:38:25.899Z,994.94
2019-03-12T04:39:25.886Z,994.96
2019-03-12T04:40:25.947Z,994.97
2019-03-12T04:41:25.894Z,994.95
2019-03-12T04:42:25.873Z,994.95
2019-03-12T04:43:25.851Z,994.86
2019-03-12T04:44:25.847Z,994.84
2019-03-12T04:45:25.845Z,994.82
2019-03-12T04:46:25.831Z,994.85
2019-03-12T04:47:25.823Z,994.80
2019-03-12T04:48:25.809Z,994.85
2019-03-12T04:49:25.814Z,994.88
2019-03-12T04:50:25.772Z,994.82
2019-03-12T04:51:25.788Z,994.79
2019-03-12T04:52:25.753Z,994.83
2019-03-12T04:53:25.738Z,994.78
2019-03-12T04:54:25.748Z,994.77
2019-03-12T04:55:25.750Z,994.72
2019-03-12T04:56:25.725Z,994.70
2019-03-12T04:57:25.704Z,994.71
2019-03-12T04:58:25.746Z,994.64
2019-03-12T04:59:25.680Z,994.70
2019-03-12T05:00:25.664Z,994.69
2019-03-12T05:01:25.692Z,994.69
2019-03-12T05:02:25.665Z,994.67
2019-03-12T05:03:25.641Z,994.67
2019-03-12T05:04:25.627Z,994.64
2019-03-12T05:05:25.621Z,994.66
2019-03-12T05:06:25.606Z,994.62
2019-03-12T05:07:25.601Z,994.64
2019-03-12T05:08:25.701Z,994.59
2019-03-12T05:09:25.609Z,994.61
2019-03-12T05:10:25.739Z,994.58
2019-03-12T05:11:25.598Z,994.57
2019-03-12T05:12:25.618Z,994.59
2019-03-12T05:13:25.597Z,994.52
2019-03-12T05:14:25.549Z,994.52
2019-03-12T05:15:25.528Z,994.54
2019-03-12T05:16:25.544Z,994.60
2019-03-12T05:17:25.486Z,994.56
2019-03-12T05:18:25.510Z,994.57
2019-03-12T05:19:25.478Z,994.57
2019-03-12T05:20:25.501Z,994.53
2019-03-12T05:21:25.515Z,994.59
2019-03-12T05:22:25.500Z,994.53
2019-03-12T05:23:25.462Z,994.49
2019-03-12T05:24:25.462Z,994.49
2019-03-12T05:25:25.500Z,994.47
2019-03-12T05:26:25.457Z,994.45
2019-03-12T05:27:25.455Z,994.41
2019-03-12T05:28:25.376Z,994.38
2019-03-12T05:29:25.372Z,994.37
2019-03-12T05:30:25.396Z,994.39
2019-03-12T05:31:25.399Z,994.41
2019-03-12T05:32:25.386Z,994.39
2019-03-12T05:33:25.328Z,994.42
2019-03-12T05:34:25.321Z,994.36
2019-03-12T05:35:25.346Z,994.44
2019-03-12T05:36:26.390Z,994.40
2019-03-12T05:37:25.392Z,994.38
2019-03-12T05:38:25.288Z,994.41
2019-03-12T05:39:25.291Z,994.36
2019-03-12T05:40:25.251Z,994.38
2019-03-12T05:41:25.243Z,994.37
2019-03-12T05:42:25.293Z,994.36
2019-03-12T05:43:25.317Z,994.38
2019-03-12T05:44:25.211Z,994.34
2019-03-12T05:45:25.247Z,994.31
2019-03-12T05:46:25.190Z,994.30
2019-03-12T05:47:25.227Z,994.30
2019-03-12T05:48:25.195Z,994.33
2019-03-12T05:49:25.163Z,994.22
2019-03-12T05:50:25.186Z,994.22
2019-03-12T05:51:25.193Z,994.21
2019-03-12T05:52:25.166Z,994.22
2019-03-12T05:53:25.151Z,994.21
2019-03-12T05:54:25.116Z,994.23
2019-03-12T05:55:25.119Z,994.19
2019-03-12T05:56:25.086Z,994.23
2019-03-12T05:57:25.215Z,994.22
2019-03-12T05:58:25.075Z,994.15
2019-03-12T05:59:25.154Z,994.14
2019-03-12T06:00:25.061Z,994.11
2019-03-12T06:01:25.040Z,994.03
2019-03-12T06:02:25.030Z,994.06
2019-03-12T06:03:25.039Z,994.06
2019-03-12T06:04:25.011Z,994.05
2019-03-12T06:05:25.003Z,994.03
2019-03-12T06:06:24.986Z,994.00
2019-03-12T06:07:24.992Z,993.95
2019-03-12T06:08:25.000Z,993.90
2019-03-12T06:09:30.239Z,993.89
2019-03-12T06:10:25.950Z,993.88
2019-03-12T06:11:24.946Z,993.88
2019-03-12T06:12:25.039Z,993.91
2019-03-12T06:13:24.967Z,993.84
2019-03-12T06:14:24.922Z,993.81
2019-03-12T06:15:24.959Z,993.86
2019-03-12T06:16:24.929Z,993.84
2019-03-12T06:17:24.871Z,993.84
2019-03-12T06:18:24.864Z,993.83
2019-03-12T06:19:24.894Z,993.79
2019-03-12T06:20:24.870Z,993.73
2019-03-12T06:21:24.877Z,993.76
2019-03-12T06:22:24.901Z,993.76
2019-03-12T06:23:24.804Z,993.75
2019-03-12T06:24:24.801Z,993.76
2019-03-12T06:25:24.885Z,993.73
2019-03-12T06:26:24.808Z,993.75
2019-03-12T06:27:24.765Z,993.71
2019-03-12T06:28:24.819Z,993.76
2019-03-12T06:29:24.754Z,993.73
2019-03-12T06:30:25.948Z,993.68
2019-03-12T06:31:24.738Z,993.67
2019-03-12T06:32:24.784Z,993.70
2019-03-12T06:33:24.739Z,993.65
2019-03-12T06:34:24.779Z,993.68
2019-03-12T06:35:24.714Z,993.63
2019-03-12T06:36:24.790Z,993.60
2019-03-12T06:37:24.734Z,993.60
2019-03-12T06:38:24.775Z,993.57
2019-03-12T06:39:24.634Z,993.59
2019-03-12T06:40:24.727Z,993.57
2019-03-12T06:41:24.682Z,993.56
2019-03-12T06:42:24.600Z,993.51
2019-03-12T06:43:24.605Z,993.51
2019-03-12T06:44:24.603Z,993.51
2019-03-12T06:45:24.636Z,993.50
2019-03-12T06:46:24.672Z,993.48
2019-03-12T06:47:24.597Z,993.43
2019-03-12T06:48:24.574Z,993.36
2019-03-12T06:49:24.549Z,993.40
2019-03-12T06:50:24.557Z,993.38
2019-03-12T06:51:24.515Z,993.34
2019-03-12T06:52:24.620Z,993.30
2019-03-12T06:53:24.505Z,993.30
2019-03-12T06:54:24.537Z,993.31
2019-03-12T06:55:24.536Z,993.29
2019-03-12T06:56:24.503Z,993.28
2019-03-12T06:57:24.493Z,993.26
2019-03-12T06:58:24.509Z,993.20
2019-03-12T06:59:24.449Z,993.17
2019-03-12T07:00:24.475Z,993.16
2019-03-12T07:01:24.431Z,993.09
2019-03-12T07:02:24.390Z,993.08
2019-03-12T07:03:24.394Z,993.03
2019-03-12T07:04:24.400Z,993.02
2019-03-12T07:05:24.474Z,992.96
2019-03-12T07:06:24.374Z,992.93
2019-03-12T07:07:24.418Z,992.93
2019-03-12T07:08:24.326Z,992.96
2019-03-12T07:09:24.381Z,992.95
2019-03-12T07:10:24.308Z,992.92
2019-03-12T07:11:24.406Z,992.94
2019-03-12T07:12:24.299Z,992.96
2019-03-12T07:13:24.395Z,992.79
2019-03-12T07:14:24.291Z,992.86
2019-03-12T07:15:24.255Z,992.86
2019-03-12T07:16:24.340Z,992.73
2019-03-12T07:17:24.321Z,992.73
2019-03-12T07:18:24.279Z,992.68
2019-03-12T07:19:24.475Z,992.73
2019-03-12T07:20:24.287Z,992.66
2019-03-12T07:21:24.250Z,992.67
2019-03-12T07:22:24.245Z,992.61
2019-03-12T07:23:24.331Z,992.57
2019-03-12T07:24:24.184Z,992.61
2019-03-12T07:25:24.233Z,992.58
2019-03-12T07:26:24.194Z,992.52
2019-03-12T07:27:24.134Z,992.55
2019-03-12T07:28:24.132Z,992.57
2019-03-12T07:29:24.163Z,992.53
2019-03-12T07:30:24.120Z,992.41
2019-03-12T07:31:24.234Z,992.41
2019-03-12T07:32:24.104Z,992.39
2019-03-12T07:33:24.070Z,992.37
2019-03-12T07:34:35.889Z,992.34
2019-03-12T07:35:25.083Z,992.32
2019-03-12T07:36:24.269Z,992.32
2019-03-12T07:37:24.049Z,992.36
2019-03-12T07:38:24.077Z,992.33
2019-03-12T07:39:24.073Z,992.32
2019-03-12T07:40:24.065Z,992.29
2019-03-12T07:41:31.896Z,992.32
2019-03-12T07:42:25.016Z,992.28
2019-03-12T07:43:24.077Z,992.18
2019-03-12T07:44:23.959Z,992.22
2019-03-12T07:45:23.994Z,992.21
2019-03-12T07:46:23.941Z,992.20
2019-03-12T07:47:35.281Z,992.19
2019-03-12T07:48:24.941Z,992.20
2019-03-12T07:49:23.982Z,992.18
2019-03-12T07:50:23.888Z,992.15
2019-03-12T07:51:23.960Z,992.12
2019-03-12T07:52:23.902Z,992.16
2019-03-12T07:53:23.862Z,992.12
2019-03-12T07:54:24.703Z,992.17
2019-03-12T07:55:23.925Z,992.11
2019-03-12T07:56:23.842Z,992.21
2019-03-12T07:57:23.898Z,992.18
2019-03-12T07:58:35.177Z,992.19
2019-03-12T07:59:24.819Z,992.18
2019-03-12T08:00:23.799Z,992.14
2019-03-12T08:01:25.012Z,992.13
2019-03-12T08:02:23.777Z,992.08
2019-03-12T08:03:23.770Z,992.07
2019-03-12T08:04:23.742Z,992.07
2019-03-12T08:05:23.745Z,992.06
2019-03-12T08:06:23.748Z,992.09
2019-03-12T08:07:23.709Z,992.04
2019-03-12T08:08:23.760Z,992.01
2019-03-12T08:09:23.685Z,991.92
2019-03-12T08:10:23.698Z,991.91
2019-03-12T08:11:23.738Z,992.00
2019-03-12T08:12:23.693Z,991.93
2019-03-12T08:13:23.637Z,991.93
2019-03-12T08:14:26.764Z,991.88
2019-03-12T08:15:23.644Z,991.85
2019-03-12T08:16:23.715Z,991.79
2019-03-12T08:17:23.610Z,991.83
2019-03-12T08:18:23.623Z,991.84
2019-03-12T08:19:23.583Z,991.84
2019-03-12T08:20:23.562Z,991.78
2019-03-12T08:21:23.590Z,991.78
2019-03-12T08:22:23.642Z,991.73
2019-03-12T08:23:23.776Z,991.70
2019-03-12T08:24:23.580Z,991.63
2019-03-12T08:25:24.226Z,991.67
2019-03-12T08:26:23.521Z,991.63
2019-03-12T08:27:25.982Z,991.58
2019-03-12T08:28:23.492Z,991.59
2019-03-12T08:29:23.479Z,991.57
2019-03-12T08:30:23.492Z,991.60
2019-03-12T08:31:23.505Z,991.48
2019-03-12T08:32:23.983Z,991.36
2019-03-12T08:33:23.631Z,991.41
2019-03-12T08:34:23.425Z,991.40
2019-03-12T08:35:23.429Z,991.40
2019-03-12T08:36:23.436Z,991.28
2019-03-12T08:37:23.453Z,991.36
2019-03-12T08:38:23.387Z,991.33
2019-03-12T08:39:23.500Z,991.28
2019-03-12T08:40:23.362Z,991.32
2019-03-12T08:41:23.394Z,991.27
2019-03-12T08:42:23.624Z,991.24
2019-03-12T08:43:23.324Z,991.22
2019-03-12T08:44:26.240Z,991.25
2019-03-12T08:45:23.354Z,991.21
2019-03-12T08:46:23.303Z,991.26
2019-03-12T08:47:23.280Z,991.34
2019-03-12T08:48:23.409Z,991.29
2019-03-12T08:49:23.265Z,991.27
2019-03-12T08:50:23.495Z,991.15
2019-03-12T08:51:23.320Z,991.15
2019-03-12T08:52:23.372Z,991.10
2019-03-12T08:53:23.255Z,991.04
2019-03-12T08:54:23.211Z,990.94
2019-03-12T08:55:23.231Z,990.90
2019-03-12T08:56:23.194Z,990.91
2019-03-12T08:57:23.172Z,990.87
2019-03-12T08:58:23.165Z,990.83
2019-03-12T08:59:23.226Z,990.83
2019-03-12T09:00:24.238Z,990.81
2019-03-12T09:01:23.171Z,990.76
2019-03-12T09:02:23.160Z,990.73
2019-03-12T09:03:23.112Z,990.69
2019-03-12T09:04:23.134Z,990.64
2019-03-12T09:05:23.358Z,990.65
2019-03-12T09:06:23.100Z,990.62
2019-03-12T09:07:23.066Z,990.54
2019-03-12T09:08:23.246Z,990.52
2019-03-12T09:09:23.051Z,990.47
2019-03-12T09:10:23.055Z,990.50
2019-03-12T09:11:23.024Z,990.51
2019-03-12T09:12:23.015Z,990.49
2019-03-12T09:13:23.002Z,990.48
2019-03-12T09:14:23.086Z,990.40
2019-03-12T09:15:22.981Z,990.47
2019-03-12T09:16:23.015Z,990.44
2019-03-12T09:17:22.988Z,990.36
2019-03-12T09:18:23.118Z,990.38
2019-03-12T09:19:22.952Z,990.36
2019-03-12T09:20:22.926Z,990.36
2019-03-12T09:21:22.918Z,990.29
2019-03-12T09:22:22.978Z,990.28
2019-03-12T09:23:22.895Z,990.27
2019-03-12T09:24:22.963Z,990.18
2019-03-12T09:25:22.885Z,990.13
2019-03-12T09:26:22.893Z,990.11
2019-03-12T09:27:22.873Z,990.08
2019-03-12T09:28:22.868Z,990.06
2019-03-12T09:29:22.832Z,990.03
2019-03-12T09:30:22.833Z,989.98
2019-03-12T09:31:22.874Z,989.92
2019-03-12T09:32:22.832Z,989.96
2019-03-12T09:33:22.821Z,989.91
2019-03-12T09:34:22.786Z,989.87
2019-03-12T09:35:22.782Z,989.80
2019-03-12T09:36:22.837Z,989.74
2019-03-12T09:37:22.754Z,989.73
2019-03-12T09:38:22.752Z,989.76
2019-03-12T09:39:22.736Z,989.70
2019-03-12T09:40:22.763Z,989.76
2019-03-12T09:41:22.827Z,989.72
2019-03-12T09:42:22.694Z,989.73
2019-03-12T09:43:22.686Z,989.65
2019-03-12T09:44:22.742Z,989.64
2019-03-12T09:45:22.690Z,989.54
2019-03-12T09:46:22.806Z,989.49
2019-03-12T09:47:22.640Z,989.53
2019-03-12T09:48:22.629Z,989.48
2019-03-12T09:49:22.632Z,989.43
2019-03-12T09:50:22.730Z,989.35
2019-03-12T09:51:22.626Z,989.34
2019-03-12T09:52:22.590Z,989.31
2019-03-12T09:53:22.589Z,989.27
2019-03-12T09:54:22.579Z,989.20
2019-03-12T09:55:22.562Z,989.24
2019-03-12T09:56:22.584Z,989.20
2019-03-12T09:57:22.548Z,989.21
2019-03-12T09:58:22.526Z,989.22
2019-03-12T09:59:22.512Z,989.11
2019-03-12T10:00:22.507Z,989.07
2019-03-12T10:01:22.500Z,989.07
2019-03-12T10:02:22.534Z,989.08
2019-03-12T10:03:22.470Z,989.03
2019-03-12T10:04:22.575Z,988.92
2019-03-12T10:05:22.446Z,988.95
2019-03-12T10:06:22.439Z,988.94
2019-03-12T10:07:22.640Z,988.83
2019-03-12T10:08:22.460Z,988.90
2019-03-12T10:09:22.424Z,988.84
2019-03-12T10:10:22.417Z,988.85
2019-03-12T10:11:22.383Z,988.84
2019-03-12T10:12:22.370Z,988.84
2019-03-12T10:13:22.366Z,988.79
2019-03-12T10:14:22.393Z,988.80
2019-03-12T10:15:22.351Z,988.80
2019-03-12T10:16:22.326Z,988.84
2019-03-12T10:17:22.318Z,988.81
2019-03-12T10:18:22.306Z,988.74
2019-03-12T10:19:22.357Z,988.73
2019-03-12T10:20:22.325Z,988.69
2019-03-12T10:21:22.316Z,988.68
2019-03-12T10:22:22.282Z,988.57
2019-03-12T10:23:22.279Z,988.51
2019-03-12T10:24:22.246Z,988.55
2019-03-12T10:25:22.236Z,988.52
2019-03-12T10:26:22.227Z,988.52
2019-03-12T10:27:22.226Z,988.52
2019-03-12T10:28:22.386Z,988.40
2019-03-12T10:29:22.199Z,988.39
2019-03-12T10:30:22.187Z,988.45
2019-03-12T10:31:22.238Z,988.45
2019-03-12T10:32:22.161Z,988.32
2019-03-12T10:33:22.147Z,988.34
2019-03-12T10:34:29.674Z,988.35
2019-03-12T10:35:23.153Z,988.33
2019-03-12T10:36:22.250Z,988.26
2019-03-12T10:37:22.115Z,988.24
2019-03-12T10:38:22.100Z,988.19
2019-03-12T10:39:22.079Z,988.21
2019-03-12T10:40:22.092Z,988.17
2019-03-12T10:41:22.123Z,988.15
2019-03-12T10:42:22.049Z,988.10
2019-03-12T10:43:22.048Z,988.02
2019-03-12T10:44:22.034Z,988.04
2019-03-12T10:45:22.014Z,987.97
2019-03-12T10:46:22.029Z,987.91
2019-03-12T10:47:22.021Z,987.88
2019-03-12T10:48:21.994Z,987.79
2019-03-12T10:49:21.982Z,987.76
2019-03-12T10:50:21.977Z,987.74
2019-03-12T10:51:21.957Z,987.75
2019-03-12T10:52:21.970Z,987.78
2019-03-12T10:53:21.957Z,987.69
2019-03-12T10:54:21.931Z,987.81
2019-03-12T10:55:21.915Z,987.77
2019-03-12T10:56:21.904Z,987.75
2019-03-12T10:57:21.888Z,987.75
2019-03-12T10:58:21.895Z,987.70
2019-03-12T10:59:21.890Z,987.71
2019-03-12T11:00:21.861Z,987.66
2019-03-12T11:01:21.858Z,987.59
2019-03-12T11:02:21.844Z,987.59
2019-03-12T11:03:21.872Z,987.61
2019-03-12T11:04:21.813Z,987.68
2019-03-12T11:05:21.839Z,987.55
2019-03-12T11:06:21.798Z,987.58
2019-03-12T11:07:21.783Z,987.55
2019-03-12T11:08:21.795Z,987.46
2019-03-12T11:09:21.762Z,987.45
2019-03-12T11:10:21.756Z,987.29
2019-03-12T11:11:21.760Z,987.39
2019-03-12T11:12:21.730Z,987.34
2019-03-12T11:13:21.718Z,987.26
2019-03-12T11:14:21.751Z,987.22
2019-03-12T11:15:21.707Z,987.19
2019-03-12T11:16:21.700Z,987.11
2019-03-12T11:17:21.698Z,987.12
2019-03-12T11:18:21.662Z,987.14
2019-03-12T11:19:21.677Z,987.17
2019-03-12T11:20:21.678Z,987.16
2019-03-12T11:21:21.633Z,987.06
2019-03-12T11:22:21.675Z,987.09
2019-03-12T11:23:21.614Z,987.06
2019-03-12T11:24:21.653Z,986.83
2019-03-12T11:25:27.048Z,986.84
2019-03-12T11:26:22.576Z,986.87
2019-03-12T11:27:21.567Z,986.91
2019-03-12T11:28:21.569Z,986.98
2019-03-12T11:29:21.570Z,986.84
2019-03-12T11:30:21.580Z,986.80
2019-03-12T11:31:21.526Z,986.84
2019-03-12T11:32:21.522Z,986.84
2019-03-12T11:33:21.517Z,986.62
2019-03-12T11:34:21.498Z,986.69
2019-03-12T11:35:21.517Z,986.62
2019-03-12T11:36:21.525Z,986.74
2019-03-12T11:37:21.474Z,986.66
2019-03-12T11:38:21.465Z,986.64
2019-03-12T11:39:21.439Z,986.69
2019-03-12T11:40:21.465Z,986.63
2019-03-12T11:41:21.449Z,986.50
2019-03-12T11:42:21.442Z,986.41
2019-03-12T11:43:21.414Z,986.40
2019-03-12T11:44:21.419Z,986.43
2019-03-12T11:45:34.907Z,986.39
2019-03-12T11:46:22.368Z,986.39
2019-03-12T11:47:21.362Z,986.43
2019-03-12T11:48:21.399Z,986.28
2019-03-12T11:49:21.340Z,986.32
2019-03-12T11:50:21.524Z,986.28
2019-03-12T11:51:21.347Z,986.38
2019-03-12T11:52:21.302Z,986.32
2019-03-12T11:53:21.332Z,986.20
2019-03-12T11:54:21.330Z,986.26
2019-03-12T11:55:21.336Z,986.30
2019-03-12T11:56:21.313Z,986.21
2019-03-12T11:57:21.247Z,986.02
2019-03-12T11:58:21.239Z,986.03
2019-03-12T11:59:21.377Z,985.97
2019-03-12T12:00:21.242Z,985.97
2019-03-12T12:01:21.234Z,986.00
2019-03-12T12:02:21.224Z,986.01
2019-03-12T12:03:21.257Z,985.96
2019-03-12T12:04:21.200Z,986.01
2019-03-12T12:05:21.164Z,985.88
2019-03-12T12:06:21.260Z,985.87
2019-03-12T12:07:21.140Z,985.81
2019-03-12T12:08:21.135Z,985.85
2019-03-12T12:09:21.224Z,985.74
2019-03-12T12:10:21.161Z,985.75
2019-03-12T12:11:21.102Z,985.74
2019-03-12T12:12:21.087Z,985.74
2019-03-12T12:13:21.084Z,985.76
2019-03-12T12:14:21.086Z,985.70
2019-03-12T12:15:21.068Z,985.53
2019-03-12T12:16:21.063Z,985.61
2019-03-12T12:17:21.039Z,985.59
2019-03-12T12:18:21.023Z,985.61
2019-03-12T12:19:21.015Z,985.54
2019-03-12T12:20:29.618Z,985.57
2019-03-12T12:21:22.023Z,985.34
2019-03-12T12:22:21.001Z,985.51
2019-03-12T12:23:20.974Z,985.42
2019-03-12T12:24:20.959Z,985.45
2019-03-12T12:25:20.950Z,985.36
2019-03-12T12:26:21.541Z,985.29
2019-03-12T12:27:21.010Z,985.30
2019-03-12T12:28:20.937Z,985.37